sensor_id;sensor_type;location;lat;lon;timestamp;pressure;altitude;pressure_sealevel;temperature;humidity
71966;BME280;59836;52.132;5.442;2023-02-19T00:01:45;101783.44;;;9.53;100.00
71966;BME280;59836;52.132;5.442;2023-02-19T00:04:15;101773.66;;;9.52;100.00
71966;BME280;59836;52.132;5.442;2023-02-19T00:06:42;101773.66;;;9.52;100.00
71966;BME280;59836;52.132;5.442;2023-02-19T00:09:11;101779.06;;;9.52;100.00
71966;BME280;59836;52.132;5.442;2023-02-19T00:11:39;101772.84;;;9.51;100.00
71966;BME280;59836;52.132;5.442;2023-02-19T00:14:06;101776.38;;;9.52;100.00
71966;BME280;59836;52.132;5.442;2023-02-19T00:16:36;101770.97;;;9.52;100.00
71966;BME280;59836;52.132;5.442;2023-02-19T00:19:05;101776.63;;;9.50;100.00
71966;BME280;59836;52.132;5.442;2023-02-19T00:21:33;101780.72;;;9.53;100.00
71966;BME280;59836;52.132;5.442;2023-02-19T00:24:03;101784.50;;;9.52;100.00
71966;BME280;59836;52.132;5.442;2023-02-19T00:26:30;101789.91;;;9.52;100.00
71966;BME280;59836;52.132;5.442;2023-02-19T00:28:57;101788.25;;;9.51;100.00
71966;BME280;59836;52.132;5.442;2023-02-19T00:31:29;101797.44;;;9.50;100.00
71966;BME280;59836;52.132;5.442;2023-02-19T00:34:00;101797.44;;;9.50;100.00
71966;BME280;59836;52.132;5.442;2023-02-19T00:36:28;101790.97;;;9.51;100.00
71966;BME280;59836;52.132;5.442;2023-02-19T00:38:54;101781.19;;;9.50;100.00
71966;BME280;59836;52.132;5.442;2023-02-19T00:41:22;101786.63;;;9.50;100.00
71966;BME280;59836;52.132;5.442;2023-02-19T00:43:55;101793.69;;;9.51;100.00
71966;BME280;59836;52.132;5.442;2023-02-19T00:49:21;101785.56;;;9.51;100.00
71966;BME280;59836;52.132;5.442;2023-02-19T00:51:48;101795.31;;;9.52;100.00
71966;BME280;59836;52.132;5.442;2023-02-19T00:54:19;101796.97;;;9.53;100.00
71966;BME280;59836;52.132;5.442;2023-02-19T00:56:48;101786.63;;;9.50;100.00
71966;BME280;59836;52.132;5.442;2023-02-19T00:59:15;101795.81;;;9.49;100.00
71966;BME280;59836;52.132;5.442;2023-02-19T01:01:42;101795.00;;;9.48;100.00
71966;BME280;59836;52.132;5.442;2023-02-19T01:04:10;101797.94;;;9.47;100.00
71966;BME280;59836;52.132;5.442;2023-02-19T01:06:40;101800.41;;;9.48;100.00
71966;BME280;59836;52.132;5.442;2023-02-19T01:09:08;101802.53;;;9.46;100.00
71966;BME280;59836;52.132;5.442;2023-02-19T01:11:34;101800.63;;;9.47;100.00
71966;BME280;59836;52.132;5.442;2023-02-19T01:14:01;101802.53;;;9.46;100.00
71966;BME280;59836;52.132;5.442;2023-02-19T01:16:29;101811.72;;;9.45;100.00
71966;BME280;59836;52.132;5.442;2023-02-19T01:18:58;101810.88;;;9.44;100.00
71966;BME280;59836;52.132;5.442;2023-02-19T01:21:30;101812.53;;;9.45;100.00
71966;BME280;59836;52.132;5.442;2023-02-19T01:23:59;101814.16;;;9.47;100.00
71966;BME280;59836;52.132;5.442;2023-02-19T01:26:28;101816.28;;;9.44;100.00
71966;BME280;59836;52.132;5.442;2023-02-19T01:28:56;101816.28;;;9.44;100.00
71966;BME280;59836;52.132;5.442;2023-02-19T01:31:23;101820.06;;;9.43;100.00
71966;BME280;59836;52.132;5.442;2023-02-19T01:33:54;101825.47;;;9.43;100.00
71966;BME280;59836;52.132;5.442;2023-02-19T01:36:23;101823.84;;;9.42;100.00
71966;BME280;59836;52.132;5.442;2023-02-19T01:38:51;101825.72;;;9.42;100.00
71966;BME280;59836;52.132;5.442;2023-02-19T01:41:21;101824.31;;;9.39;100.00
71966;BME280;59836;52.132;5.442;2023-02-19T01:44:04;101828.06;;;9.38;100.00
71966;BME280;59836;52.132;5.442;2023-02-19T01:46:38;101831.84;;;9.37;100.00
71966;BME280;59836;52.132;5.442;2023-02-19T01:49:13;101819.38;;;9.36;100.00
71966;BME280;59836;52.132;5.442;2023-02-19T01:51:44;101825.84;;;9.35;100.00
71966;BME280;59836;52.132;5.442;2023-02-19T01:54:15;101835.84;;;9.35;100.00
71966;BME280;59836;52.132;5.442;2023-02-19T01:56:43;101830.66;;;9.33;100.00
71966;BME280;59836;52.132;5.442;2023-02-19T01:59:11;101838.19;;;9.31;100.00
71966;BME280;59836;52.132;5.442;2023-02-19T02:01:38;101828.44;;;9.30;100.00
71966;BME280;59836;52.132;5.442;2023-02-19T02:04:09;101829.28;;;9.30;100.00
71966;BME280;59836;52.132;5.442;2023-02-19T02:06:54;101833.03;;;9.29;100.00
71966;BME280;59836;52.132;5.442;2023-02-19T02:09:26;101828.69;;;9.28;100.00
71966;BME280;59836;52.132;5.442;2023-02-19T02:12:12;101835.97;;;9.28;100.00
71966;BME280;59836;52.132;5.442;2023-02-19T02:14:42;101837.03;;;9.27;100.00
71966;BME280;59836;52.132;5.442;2023-02-19T02:17:23;101830.81;;;9.26;100.00
71966;BME280;59836;52.132;5.442;2023-02-19T02:20:01;101828.31;;;9.25;100.00
71966;BME280;59836;52.132;5.442;2023-02-19T02:22:38;101835.03;;;9.22;100.00
71966;BME280;59836;52.132;5.442;2023-02-19T02:31:13;101840.44;;;9.22;100.00
71966;BME280;59836;52.132;5.442;2023-02-19T02:33:54;101837.16;;;9.20;100.00
71966;BME280;59836;52.132;5.442;2023-02-19T02:36:28;101838.44;;;9.18;100.00
71966;BME280;59836;52.132;5.442;2023-02-19T02:38:56;101842.19;;;9.16;100.00
71966;BME280;59836;52.132;5.442;2023-02-19T02:41:28;101842.19;;;9.16;100.00
71966;BME280;59836;52.132;5.442;2023-02-19T02:43:55;101849.50;;;9.16;100.00
71966;BME280;59836;52.132;5.442;2023-02-19T02:46:27;101842.44;;;9.15;100.00
71966;BME280;59836;52.132;5.442;2023-02-19T02:49:03;101848.69;;;9.15;100.00
71966;BME280;59836;52.132;5.442;2023-02-19T02:51:40;101854.69;;;9.18;100.00
71966;BME280;59836;52.132;5.442;2023-02-19T02:54:25;101849.25;;;9.18;100.00
71966;BME280;59836;52.132;5.442;2023-02-19T02:57:13;101852.22;;;9.16;100.00
71966;BME280;59836;52.132;5.442;2023-02-19T02:59:41;101858.44;;;9.16;100.00
71966;BME280;59836;52.132;5.442;2023-02-19T03:02:17;101856.78;;;9.15;100.00
71966;BME280;59836;52.132;5.442;2023-02-19T03:10:43;101858.91;;;9.13;100.00
71966;BME280;59836;52.132;5.442;2023-02-19T03:13:21;101859.97;;;9.12;100.00
71966;BME280;59836;52.132;5.442;2023-02-19T03:16:27;101865.38;;;9.12;100.00
71966;BME280;59836;52.132;5.442;2023-02-19T03:19:24;101865.38;;;9.12;100.00
71966;BME280;59836;52.132;5.442;2023-02-19T03:22:26;101866.22;;;9.13;100.00
71966;BME280;59836;52.132;5.442;2023-02-19T03:25:01;101868.09;;;9.12;100.00
71966;BME280;59836;52.132;5.442;2023-02-19T03:28:02;101871.84;;;9.11;100.00
71966;BME280;59836;52.132;5.442;2023-02-19T03:30:46;101872.69;;;9.12;100.00
71966;BME280;59836;52.132;5.442;2023-02-19T03:33:32;101870.78;;;9.12;100.00
71966;BME280;59836;52.132;5.442;2023-02-19T03:36:06;101880.81;;;9.12;100.00
71966;BME280;59836;52.132;5.442;2023-02-19T03:38:41;101888.09;;;9.11;100.00
71966;BME280;59836;52.132;5.442;2023-02-19T03:41:25;101879.97;;;9.11;100.00
71966;BME280;59836;52.132;5.442;2023-02-19T03:44:15;101888.09;;;9.11;100.00
71966;BME280;59836;52.132;5.442;2023-02-19T03:47:19;101888.94;;;9.12;100.00
71966;BME280;59836;52.132;5.442;2023-02-19T03:58:37;101899.97;;;9.10;100.00
71966;BME280;59836;52.132;5.442;2023-02-19T04:01:13;101901.03;;;9.09;100.00
71966;BME280;59836;52.132;5.442;2023-02-19T04:04:03;101911.84;;;9.09;100.00
71966;BME280;59836;52.132;5.442;2023-02-19T04:06:35;101908.34;;;9.09;100.00
71966;BME280;59836;52.132;5.442;2023-02-19T04:09:05;101914.56;;;9.09;100.00
71966;BME280;59836;52.132;5.442;2023-02-19T04:11:36;101913.97;;;9.07;100.00
71966;BME280;59836;52.132;5.442;2023-02-19T04:14:32;101924.78;;;9.07;100.00
71966;BME280;59836;52.132;5.442;2023-02-19T04:17:06;101925.25;;;9.04;100.00
71966;BME280;59836;52.132;5.442;2023-02-19T04:19:41;101932.78;;;9.02;100.00
71966;BME280;59836;52.132;5.442;2023-02-19T04:22:09;101929.84;;;9.04;99.99
71966;BME280;59836;52.132;5.442;2023-02-19T04:24:45;101939.84;;;9.03;100.00
71966;BME280;59836;52.132;5.442;2023-02-19T04:27:13;101932.78;;;9.02;100.00
71966;BME280;59836;52.132;5.442;2023-02-19T04:29:40;101931.97;;;9.01;100.00
71966;BME280;59836;52.132;5.442;2023-02-19T04:32:09;101943.59;;;9.02;100.00
71966;BME280;59836;52.132;5.442;2023-02-19T04:34:38;101944.44;;;9.03;100.00
71966;BME280;59836;52.132;5.442;2023-02-19T04:37:05;101949.25;;;9.00;100.00
71966;BME280;59836;52.132;5.442;2023-02-19T04:39:36;101961.75;;;9.01;100.00
71966;BME280;59836;52.132;5.442;2023-02-19T04:42:09;101958.19;;;9.01;100.00
71966;BME280;59836;52.132;5.442;2023-02-19T04:44:37;101963.59;;;9.01;99.88
71966;BME280;59836;52.132;5.442;2023-02-19T04:47:05;101968.19;;;9.00;100.00
71966;BME280;59836;52.132;5.442;2023-02-19T04:49:33;101974.44;;;9.01;100.00
71966;BME280;59836;52.132;5.442;2023-02-19T04:51:59;101976.56;;;8.99;99.89
71966;BME280;59836;52.132;5.442;2023-02-19T04:54:32;101971.16;;;8.99;99.96
71966;BME280;59836;52.132;5.442;2023-02-19T04:56:59;101987.38;;;8.99;100.00
71966;BME280;59836;52.132;5.442;2023-02-19T04:59:25;101987.38;;;8.99;100.00
71966;BME280;59836;52.132;5.442;2023-02-19T05:01:51;101991.75;;;9.00;99.96
71966;BME280;59836;52.132;5.442;2023-02-19T05:04:18;101991.16;;;8.98;100.00
71966;BME280;59836;52.132;5.442;2023-02-19T05:06:46;101991.16;;;8.98;99.98
71966;BME280;59836;52.132;5.442;2023-02-19T05:09:15;101996.56;;;8.98;100.00
71966;BME280;59836;52.132;5.442;2023-02-19T05:11:41;101995.50;;;8.99;100.00
71966;BME280;59836;52.132;5.442;2023-02-19T05:14:08;101995.72;;;8.97;100.00
71966;BME280;59836;52.132;5.442;2023-02-19T05:16:34;101997.63;;;8.97;100.00
71966;BME280;59836;52.132;5.442;2023-02-19T05:19:01;102001.97;;;8.98;100.00
71966;BME280;59836;52.132;5.442;2023-02-19T05:21:27;102007.38;;;8.98;99.97
71966;BME280;59836;52.132;5.442;2023-02-19T05:23:55;102018.22;;;8.98;100.00
71966;BME280;59836;52.132;5.442;2023-02-19T05:26:23;102021.13;;;8.96;100.00
71966;BME280;59836;52.132;5.442;2023-02-19T05:28:58;102014.06;;;8.95;100.00
71966;BME280;59836;52.132;5.442;2023-02-19T05:31:25;102022.19;;;8.95;100.00
71966;BME280;59836;52.132;5.442;2023-02-19T05:33:55;102027.84;;;8.94;99.99
71966;BME280;59836;52.132;5.442;2023-02-19T05:36:22;102027.84;;;8.94;100.00
71966;BME280;59836;52.132;5.442;2023-02-19T05:38:56;102022.63;;;8.92;100.00
71966;BME280;59836;52.132;5.442;2023-02-19T05:41:27;102027.25;;;8.92;100.00
71966;BME280;59836;52.132;5.442;2023-02-19T05:43:54;102027.25;;;8.92;100.00
71966;BME280;59836;52.132;5.442;2023-02-19T05:46:24;102014.97;;;8.89;100.00
71966;BME280;59836;52.132;5.442;2023-02-19T05:48:52;102018.53;;;8.90;100.00
71966;BME280;59836;52.132;5.442;2023-02-19T05:51:21;102023.94;;;8.90;100.00
71966;BME280;59836;52.132;5.442;2023-02-19T05:53:49;102025.00;;;8.89;100.00
71966;BME280;59836;52.132;5.442;2023-02-19T05:56:44;102025.81;;;8.89;100.00
71966;BME280;59836;52.132;5.442;2023-02-19T05:59:22;102034.16;;;8.88;100.00
71966;BME280;59836;52.132;5.442;2023-02-19T06:01:51;102038.72;;;8.87;100.00
71966;BME280;59836;52.132;5.442;2023-02-19T06:04:18;102035.22;;;8.86;99.72
71966;BME280;59836;52.132;5.442;2023-02-19T06:06:49;102043.34;;;8.86;99.90
71966;BME280;59836;52.132;5.442;2023-02-19T06:09:16;102040.63;;;8.86;99.54
71966;BME280;59836;52.132;5.442;2023-02-19T06:11:44;102043.34;;;8.86;100.00
71966;BME280;59836;52.132;5.442;2023-02-19T06:14:13;102045.44;;;8.84;99.85
71966;BME280;59836;52.132;5.442;2023-02-19T06:16:40;102060.63;;;8.85;99.62
71966;BME280;59836;52.132;5.442;2023-02-19T06:19:07;102064.97;;;8.86;100.00
71966;BME280;59836;52.132;5.442;2023-02-19T06:21:36;102065.44;;;8.83;99.88
71966;BME280;59836;52.132;5.442;2023-02-19T06:24:05;102074.59;;;8.82;99.72
71966;BME280;59836;52.132;5.442;2023-02-19T06:26:31;102080.00;;;8.82;99.73
71966;BME280;59836;52.132;5.442;2023-02-19T06:28:58;102092.47;;;8.83;99.72
71966;BME280;59836;52.132;5.442;2023-02-19T06:31:25;102092.47;;;8.83;99.78
71966;BME280;59836;52.132;5.442;2023-02-19T06:33:58;102093.75;;;8.81;99.80
71966;BME280;59836;52.132;5.442;2023-02-19T06:36:24;102096.69;;;8.79;99.78
71966;BME280;59836;52.132;5.442;2023-02-19T06:38:53;102096.09;;;8.77;100.00
71966;BME280;59836;52.132;5.442;2023-02-19T06:41:19;102094.19;;;8.78;100.00
71966;BME280;59836;52.132;5.442;2023-02-19T06:43:46;102104.22;;;8.77;100.00
71966;BME280;59836;52.132;5.442;2023-02-19T06:46:12;102100.91;;;8.75;100.00
71966;BME280;59836;52.132;5.442;2023-02-19T06:48:42;102100.91;;;8.75;99.95
71966;BME280;59836;52.132;5.442;2023-02-19T06:51:11;102103.00;;;8.73;100.00
71966;BME280;59836;52.132;5.442;2023-02-19T06:53:38;102109.22;;;8.74;100.00
71966;BME280;59836;52.132;5.442;2023-02-19T06:56:18;102113.81;;;8.73;100.00
71966;BME280;59836;52.132;5.442;2023-02-19T06:58:58;102115.09;;;8.70;100.00
71966;BME280;59836;52.132;5.442;2023-02-19T07:01:25;102112.38;;;8.70;100.00
71966;BME280;59836;52.132;5.442;2023-02-19T07:03:52;102125.91;;;8.70;100.00
71966;BME280;59836;52.132;5.442;2023-02-19T07:06:26;102133.81;;;8.72;99.97
71966;BME280;59836;52.132;5.442;2023-02-19T07:08:54;102134.88;;;8.71;100.00
71966;BME280;59836;52.132;5.442;2023-02-19T07:11:21;102142.97;;;8.71;100.00
71966;BME280;59836;52.132;5.442;2023-02-19T07:13:53;102145.69;;;8.71;100.00
71966;BME280;59836;52.132;5.442;2023-02-19T07:16:21;102147.53;;;8.70;99.95
71966;BME280;59836;52.132;5.442;2023-02-19T07:18:47;102146.72;;;8.70;100.00
71966;BME280;59836;52.132;5.442;2023-02-19T07:21:15;102160.25;;;8.70;100.00
71966;BME280;59836;52.132;5.442;2023-02-19T07:23:42;102164.63;;;8.71;99.93
71966;BME280;59836;52.132;5.442;2023-02-19T07:26:13;102171.88;;;8.70;100.00
71966;BME280;59836;52.132;5.442;2023-02-19T07:28:40;102178.13;;;8.71;100.00
71966;BME280;59836;52.132;5.442;2023-02-19T07:31:06;102177.53;;;8.69;100.00
71966;BME280;59836;52.132;5.442;2023-02-19T07:33:33;102179.19;;;8.70;100.00
71966;BME280;59836;52.132;5.442;2023-02-19T07:36:00;102175.44;;;8.71;100.00
71966;BME280;59836;52.132;5.442;2023-02-19T07:38:27;102187.91;;;8.72;100.00
71966;BME280;59836;52.132;5.442;2023-02-19T07:41:04;102189.56;;;8.73;100.00
71966;BME280;59836;52.132;5.442;2023-02-19T07:43:34;102190.63;;;8.72;100.00
71966;BME280;59836;52.132;5.442;2023-02-19T07:46:11;102188.72;;;8.73;100.00
71966;BME280;59836;52.132;5.442;2023-02-19T07:48:39;102180.41;;;8.74;100.00
71966;BME280;59836;52.132;5.442;2023-02-19T07:51:07;102194.72;;;8.75;100.00
71966;BME280;59836;52.132;5.442;2023-02-19T07:53:42;102206.41;;;8.75;100.00
71966;BME280;59836;52.132;5.442;2023-02-19T07:56:09;102207.00;;;8.77;100.00
71966;BME280;59836;52.132;5.442;2023-02-19T07:58:37;102207.00;;;8.77;100.00
71966;BME280;59836;52.132;5.442;2023-02-19T08:01:13;102212.41;;;8.77;100.00
71966;BME280;59836;52.132;5.442;2023-02-19T08:03:40;102211.34;;;8.78;100.00
71966;BME280;59836;52.132;5.442;2023-02-19T08:06:07;102208.66;;;8.78;100.00
71966;BME280;59836;52.132;5.442;2023-02-19T08:08:37;102222.78;;;8.80;100.00
71966;BME280;59836;52.132;5.442;2023-02-19T08:11:04;102221.13;;;8.79;100.00
71966;BME280;59836;52.132;5.442;2023-02-19T08:13:51;102228.19;;;8.80;100.00
71966;BME280;59836;52.132;5.442;2023-02-19T08:16:18;102231.50;;;8.82;100.00
71966;BME280;59836;52.132;5.442;2023-02-19T08:19:03;102226.09;;;8.82;100.00
71966;BME280;59836;52.132;5.442;2023-02-19T08:21:31;102237.53;;;8.84;100.00
71966;BME280;59836;52.132;5.442;2023-02-19T08:24:01;102242.94;;;8.84;100.00
71966;BME280;59836;52.132;5.442;2023-02-19T08:26:28;102241.88;;;8.85;100.00
71966;BME280;59836;52.132;5.442;2023-02-19T08:28:54;102248.09;;;8.86;100.00
71966;BME280;59836;52.132;5.442;2023-02-19T08:31:21;102252.69;;;8.85;99.76
71966;BME280;59836;52.132;5.442;2023-02-19T08:33:50;102258.13;;;8.85;100.00
71966;BME280;59836;52.132;5.442;2023-02-19T08:36:17;102262.47;;;8.86;100.00
71966;BME280;59836;52.132;5.442;2023-02-19T08:38:43;102265.19;;;8.86;100.00
71966;BME280;59836;52.132;5.442;2023-02-19T08:41:12;102261.88;;;8.84;100.00
71966;BME280;59836;52.132;5.442;2023-02-19T08:43:40;102272.69;;;8.84;100.00
71966;BME280;59836;52.132;5.442;2023-02-19T08:46:10;102271.03;;;8.83;100.00
71966;BME280;59836;52.132;5.442;2023-02-19T08:48:38;102284.31;;;8.85;100.00
71966;BME280;59836;52.132;5.442;2023-02-19T08:51:10;102282.22;;;8.87;100.00
71966;BME280;59836;52.132;5.442;2023-02-19T08:53:44;102273.91;;;8.89;100.00
71966;BME280;59836;52.132;5.442;2023-02-19T08:56:22;102278.25;;;8.90;100.00
71966;BME280;59836;52.132;5.442;2023-02-19T08:58:51;102268.50;;;8.89;100.00
71966;BME280;59836;52.132;5.442;2023-02-19T09:01:25;102273.66;;;8.90;100.00
71966;BME280;59836;52.132;5.442;2023-02-19T09:03:52;102278.63;;;8.93;100.00
71966;BME280;59836;52.132;5.442;2023-02-19T09:06:19;102287.16;;;8.97;100.00
71966;BME280;59836;52.132;5.442;2023-02-19T09:08:46;102281.72;;;8.97;100.00
71966;BME280;59836;52.132;5.442;2023-02-19T09:11:12;102275.63;;;9.01;100.00
71966;BME280;59836;52.132;5.442;2023-02-19T09:13:40;102285.16;;;9.04;100.00
71966;BME280;59836;52.132;5.442;2023-02-19T09:16:06;102288.03;;;9.09;100.00
71966;BME280;59836;52.132;5.442;2023-02-19T09:18:50;102303.63;;;9.14;100.00
71966;BME280;59836;52.132;5.442;2023-02-19T09:21:17;102306.09;;;9.15;100.00
71966;BME280;59836;52.132;5.442;2023-02-19T09:24:04;102300.69;;;9.15;100.00
71966;BME280;59836;52.132;5.442;2023-02-19T09:26:41;102301.06;;;9.19;100.00
71966;BME280;59836;52.132;5.442;2023-02-19T09:29:15;102304.84;;;9.18;99.75
71966;BME280;59836;52.132;5.442;2023-02-19T09:31:57;102321.06;;;9.18;99.92
71966;BME280;59836;52.132;5.442;2023-02-19T09:34:26;102334.38;;;9.20;99.74
71966;BME280;59836;52.132;5.442;2023-02-19T09:36:58;102337.91;;;9.20;100.00
71966;BME280;59836;52.132;5.442;2023-02-19T09:39:25;102348.97;;;9.19;99.78
71966;BME280;59836;52.132;5.442;2023-02-19T09:41:55;102347.31;;;9.18;99.84
71966;BME280;59836;52.132;5.442;2023-02-19T09:44:32;102354.38;;;9.19;99.72
71966;BME280;59836;52.132;5.442;2023-02-19T09:47:00;102367.91;;;9.19;99.97
71966;BME280;59836;52.132;5.442;2023-02-19T09:49:35;102374.16;;;9.19;99.85
71966;BME280;59836;52.132;5.442;2023-02-19T09:52:18;102368.16;;;9.17;99.55
71966;BME280;59836;52.132;5.442;2023-02-19T09:54:45;102378.38;;;9.15;99.50
71966;BME280;59836;52.132;5.442;2023-02-19T09:57:15;102382.31;;;9.12;99.36
71966;BME280;59836;52.132;5.442;2023-02-19T10:00:05;102388.78;;;9.11;99.57
71966;BME280;59836;52.132;5.442;2023-02-19T10:02:35;102388.78;;;9.11;99.47
71966;BME280;59836;52.132;5.442;2023-02-19T10:05:05;102387.97;;;9.11;99.52
71966;BME280;59836;52.132;5.442;2023-02-19T10:07:39;102399.00;;;9.09;99.53
71966;BME280;59836;52.132;5.442;2023-02-19T10:12:47;102425.91;;;9.04;98.52
71966;BME280;59836;52.132;5.442;2023-02-19T10:15:20;102429.50;;;8.98;98.46
71966;BME280;59836;52.132;5.442;2023-02-19T10:17:48;102428.50;;;8.92;98.43
71966;BME280;59836;52.132;5.442;2023-02-19T10:20:16;102441.03;;;8.86;98.41
71966;BME280;59836;52.132;5.442;2023-02-19T10:22:44;102451.06;;;8.79;98.12
71966;BME280;59836;52.132;5.442;2023-02-19T10:25:14;102455.88;;;8.77;98.55
71966;BME280;59836;52.132;5.442;2023-02-19T10:27:42;102451.28;;;8.78;98.65
71966;BME280;59836;52.132;5.442;2023-02-19T10:30:18;102459.00;;;8.74;98.05
71966;BME280;59836;52.132;5.442;2023-02-19T10:33:07;102467.56;;;8.71;98.45
71966;BME280;59836;52.132;5.442;2023-02-19T10:35:37;102467.56;;;8.71;98.65
71966;BME280;59836;52.132;5.442;2023-02-19T10:38:04;102471.31;;;8.70;98.34
71966;BME280;59836;52.132;5.442;2023-02-19T10:40:32;102465.66;;;8.71;98.98
71966;BME280;59836;52.132;5.442;2023-02-19T10:43:01;102467.75;;;8.69;98.61
71966;BME280;59836;52.132;5.442;2023-02-19T10:45:44;102469.66;;;8.69;98.26
71966;BME280;59836;52.132;5.442;2023-02-19T10:48:26;102471.31;;;8.70;99.02
71966;BME280;59836;52.132;5.442;2023-02-19T10:50:56;102475.44;;;8.73;98.75
71966;BME280;59836;52.132;5.442;2023-02-19T10:53:40;102481.69;;;8.73;98.78
71966;BME280;59836;52.132;5.442;2023-02-19T10:56:10;102472.97;;;8.71;98.25
71966;BME280;59836;52.132;5.442;2023-02-19T10:58:38;102478.38;;;8.71;98.73
71966;BME280;59836;52.132;5.442;2023-02-19T11:01:21;102467.56;;;8.64;98.22
71966;BME280;59836;52.132;5.442;2023-02-19T11:03:52;102462.41;;;8.63;98.46
71966;BME280;59836;52.132;5.442;2023-02-19T11:06:38;102455.94;;;8.64;98.77
71966;BME280;59836;52.132;5.442;2023-02-19T11:09:05;102454.28;;;8.63;98.10
71966;BME280;59836;52.132;5.442;2023-02-19T11:14:02;102462.16;;;8.64;98.89
71966;BME280;59836;52.132;5.442;2023-02-19T11:16:39;102468.19;;;8.66;98.69
71966;BME280;59836;52.132;5.442;2023-02-19T11:19:28;102479.84;;;8.67;98.55
71966;BME280;59836;52.132;5.442;2023-02-19T11:21:58;102470.09;;;8.66;98.50
71966;BME280;59836;52.132;5.442;2023-02-19T11:24:33;102469.25;;;8.65;98.55
71966;BME280;59836;52.132;5.442;2023-02-19T11:27:05;102482.56;;;8.67;97.67
71966;BME280;59836;52.132;5.442;2023-02-19T11:29:33;102485.88;;;8.69;98.64
71966;BME280;59836;52.132;5.442;2023-02-19T11:32:26;102482.94;;;8.70;98.38
71966;BME280;59836;52.132;5.442;2023-02-19T11:35:13;102479.00;;;8.73;98.26
71966;BME280;59836;52.132;5.442;2023-02-19T11:37:53;102485.00;;;8.75;97.95
71966;BME280;59836;52.132;5.442;2023-02-19T11:40:28;102492.94;;;8.70;97.62
71966;BME280;59836;52.132;5.442;2023-02-19T11:43:20;102497.94;;;8.73;98.26
71966;BME280;59836;52.132;5.442;2023-02-19T11:48:52;102500.63;;;8.73;98.26
71966;BME280;59836;52.132;5.442;2023-02-19T11:51:54;102497.50;;;8.76;97.78
71966;BME280;59836;52.132;5.442;2023-02-19T12:16:53;102504.50;;;8.32;96.26
71966;BME280;59836;52.132;5.442;2023-02-19T12:19:39;102500.56;;;8.27;96.53
71966;BME280;59836;52.132;5.442;2023-02-19T12:22:30;102495.59;;;8.24;96.38
71966;BME280;59836;52.132;5.442;2023-02-19T12:31:00;102492.50;;;8.21;96.85
71966;BME280;59836;52.132;5.442;2023-02-19T12:36:23;102503.50;;;8.19;96.86
71966;BME280;59836;52.132;5.442;2023-02-19T12:41:43;102515.16;;;8.13;96.59
71966;BME280;59836;52.132;5.442;2023-02-19T12:44:20;102513.50;;;8.12;96.84
71966;BME280;59836;52.132;5.442;2023-02-19T12:46:52;102518.28;;;8.10;96.21
71966;BME280;59836;52.132;5.442;2023-02-19T12:49:26;102525.56;;;8.09;96.22
71966;BME280;59836;52.132;5.442;2023-02-19T12:52:23;102535.97;;;8.06;96.47
71966;BME280;59836;52.132;5.442;2023-02-19T12:54:53;102535.16;;;8.05;96.41
71966;BME280;59836;52.132;5.442;2023-02-19T12:57:33;102538.88;;;8.04;96.01
71966;BME280;59836;52.132;5.442;2023-02-19T13:00:11;102545.53;;;8.02;95.54
71966;BME280;59836;52.132;5.442;2023-02-19T13:02:48;102563.19;;;7.97;95.50
71966;BME280;59836;52.132;5.442;2023-02-19T13:08:13;102552.84;;;7.94;96.00
71966;BME280;59836;52.132;5.442;2023-02-19T13:10:49;102550.13;;;7.94;95.58
71966;BME280;59836;52.132;5.442;2023-02-19T13:13:25;102561.53;;;7.96;95.97
71966;BME280;59836;52.132;5.442;2023-02-19T13:15:57;102562.78;;;7.94;95.84
71966;BME280;59836;52.132;5.442;2023-02-19T13:18:31;102577.75;;;7.96;95.81
71966;BME280;59836;52.132;5.442;2023-02-19T13:20:59;102589.16;;;7.98;96.42
71966;BME280;59836;52.132;5.442;2023-02-19T13:23:32;102582.09;;;7.97;95.99
71966;BME280;59836;52.132;5.442;2023-02-19T13:31:50;102593.34;;;7.81;95.13
71966;BME280;59836;52.132;5.442;2023-02-19T13:37:16;102586.28;;;7.80;95.18
71966;BME280;59836;52.132;5.442;2023-02-19T13:39:52;102595.63;;;7.77;95.49
71966;BME280;59836;52.132;5.442;2023-02-19T13:42:25;102590.03;;;7.79;95.28
71966;BME280;59836;52.132;5.442;2023-02-19T13:45:26;102599.19;;;7.78;95.36
71966;BME280;59836;52.132;5.442;2023-02-19T14:04:23;102607.91;;;7.93;95.10
71966;BME280;59836;52.132;5.442;2023-02-19T14:14:49;102622.84;;;8.03;94.67
71966;BME280;59836;52.132;5.442;2023-02-19T14:27:56;102609.13;;;8.11;93.70
71966;BME280;59836;52.132;5.442;2023-02-19T14:30:26;102594.56;;;8.12;93.29
71966;BME280;59836;52.132;5.442;2023-02-19T14:32:53;102596.22;;;8.13;93.31
71966;BME280;59836;52.132;5.442;2023-02-19T14:35:40;102597.91;;;8.14;92.88
71966;BME280;59836;52.132;5.442;2023-02-19T14:38:17;102582.31;;;8.16;93.16
71966;BME280;59836;52.132;5.442;2023-02-19T14:40:45;102589.59;;;8.16;91.79
71966;BME280;59836;52.132;5.442;2023-02-19T14:43:15;102573.56;;;8.14;92.29
71966;BME280;59836;52.132;5.442;2023-02-19T14:45:48;102573.38;;;8.16;91.62
71966;BME280;59836;52.132;5.442;2023-02-19T14:48:21;102566.72;;;8.18;91.21
71966;BME280;59836;52.132;5.442;2023-02-19T14:50:52;102566.72;;;8.18;90.74
71966;BME280;59836;52.132;5.442;2023-02-19T14:53:21;102569.84;;;8.15;91.51
71966;BME280;59836;52.132;5.442;2023-02-19T14:55:48;102571.72;;;8.15;91.55
71966;BME280;59836;52.132;5.442;2023-02-19T14:58:30;102560.91;;;8.15;90.72
71966;BME280;59836;52.132;5.442;2023-02-19T15:00:59;102558.41;;;8.13;89.45
71966;BME280;59836;52.132;5.442;2023-02-19T15:06:06;102549.25;;;8.14;89.65
71966;BME280;59836;52.132;5.442;2023-02-19T15:08:42;102557.16;;;8.16;89.99
71966;BME280;59836;52.132;5.442;2023-02-19T15:11:16;102552.16;;;8.19;89.71
71966;BME280;59836;52.132;5.442;2023-02-19T15:13:49;102550.06;;;8.21;89.83
71966;BME280;59836;52.132;5.442;2023-02-19T15:16:20;102564.44;;;8.22;89.66
71966;BME280;59836;52.132;5.442;2023-02-19T15:18:51;102578.75;;;8.22;88.45